createdAt,value
2023-01-11T00:01:22.485Z,99976.91
2023-01-11T00:02:58.096Z,99979.34
2023-01-11T00:04:30.615Z,99970.56
2023-01-11T00:06:02.920Z,99977.19
2023-01-11T00:07:35.045Z,99971.09
2023-01-11T00:09:06.933Z,99986.72
2023-01-11T00:10:38.898Z,99985.03
2023-01-11T00:12:14.205Z,99992.91
2023-01-11T00:13:46.178Z,99986.31
2023-01-11T00:15:18.137Z,99986.84
2023-01-11T00:16:50.128Z,99981.25
2023-01-11T00:18:22.312Z,99997.38
2023-01-11T00:19:54.271Z,99987.66
2023-01-11T00:21:26.813Z,99982.75
2023-01-11T00:22:58.997Z,99982.03
2023-01-11T00:24:30.964Z,99982.75
2023-01-11T00:26:04.114Z,99994.22
2023-01-11T00:27:36.107Z,99981.31
2023-01-11T00:29:08.095Z,99988.16
2023-01-11T00:30:40.039Z,99982.28
2023-01-11T00:32:12.024Z,99983.97
2023-01-11T00:33:44.063Z,99982.78
2023-01-11T00:35:16.257Z,99980.81
2023-01-11T00:36:48.164Z,99980.09
2023-01-11T00:38:39.340Z,99983.97
2023-01-11T00:40:11.518Z,99979.84
2023-01-11T00:42:03.477Z,99980.59
2023-01-11T00:43:54.017Z,99976.69
2023-01-11T00:45:44.532Z,99974.03
2023-01-11T00:47:35.681Z,99970.84
2023-01-11T00:49:07.583Z,99979.63
2023-01-11T00:50:40.534Z,99979.16
2023-01-11T00:52:12.499Z,99978.16
2023-01-11T00:53:48.432Z,99972.81
2023-01-11T00:55:20.558Z,99981.59
2023-01-11T00:56:52.479Z,99983.78
2023-01-11T00:58:24.530Z,99990.13
2023-01-11T00:59:56.496Z,99987.44
2023-01-11T01:01:28.643Z,99989.16
2023-01-11T01:03:00.600Z,99992.06
2023-01-11T01:04:32.753Z,99989.41
2023-01-11T01:06:04.777Z,99993.31
2023-01-11T01:07:37.408Z,99992.31
2023-01-11T01:09:09.326Z,99993.06
2023-01-11T01:10:41.345Z,100001.09
2023-01-11T01:12:33.255Z,100000.59
2023-01-11T01:14:23.852Z,99994.75
2023-01-11T01:15:59.234Z,99995.25
2023-01-11T01:17:31.503Z,100004.00
2023-01-11T01:19:03.991Z,99995.47
2023-01-11T01:20:35.978Z,100006.69
2023-01-11T01:22:08.005Z,100007.91
2023-01-11T01:23:39.983Z,99996.22
2023-01-11T01:25:11.888Z,99997.69
2023-01-11T01:26:44.970Z,99998.16
2023-01-11T01:28:18.830Z,99997.69
2023-01-11T01:29:50.753Z,99991.13
2023-01-11T01:31:22.797Z,99999.38
2023-01-11T01:32:55.016Z,100004.50
2023-01-11T01:34:27.047Z,100005.72
2023-01-11T01:36:00.952Z,99998.63
2023-01-11T01:37:32.890Z,100005.94
2023-01-11T01:39:05.943Z,100013.00
2023-01-11T01:40:41.543Z,100015.44
2023-01-11T01:42:14.822Z,100012.25
2023-01-11T01:43:54.304Z,100007.84
2023-01-11T01:45:26.940Z,100003.94
2023-01-11T01:46:59.068Z,100011.75
2023-01-11T01:48:30.992Z,100005.44
2023-01-11T01:50:06.639Z,100006.91
2023-01-11T01:51:42.026Z,100002.78
2023-01-11T01:53:15.913Z,99997.91
2023-01-11T01:54:49.030Z,100004.25
2023-01-11T01:56:26.218Z,99999.41
2023-01-11T01:57:58.660Z,99997.69
2023-01-11T01:59:31.194Z,100002.81
2023-01-11T02:01:23.112Z,100006.44
2023-01-11T02:02:55.832Z,100006.69
2023-01-11T02:04:27.906Z,100004.00
2023-01-11T02:05:59.994Z,100005.72
2023-01-11T02:07:34.326Z,99995.22
2023-01-11T02:09:21.097Z,100001.03
2023-01-11T02:10:54.347Z,100005.91
2023-01-11T02:12:30.207Z,100006.63
2023-01-11T02:14:03.273Z,99992.72
2023-01-11T02:15:36.117Z,99991.50
2023-01-11T02:17:08.913Z,99990.00
2023-01-11T02:18:42.210Z,99985.16
2023-01-11T02:20:14.224Z,99995.34
2023-01-11T02:22:04.722Z,99993.41
2023-01-11T02:23:44.741Z,99994.38
2023-01-11T02:25:22.667Z,99990.47
2023-01-11T02:26:55.499Z,99986.31
2023-01-11T02:28:30.556Z,99989.44
2023-01-11T02:30:08.828Z,99996.44
2023-01-11T02:31:44.121Z,99978.72
2023-01-11T02:33:24.416Z,99986.72
2023-01-11T02:35:06.759Z,99989.34
2023-01-11T02:36:41.234Z,99991.28
2023-01-11T02:38:16.066Z,99991.00
2023-01-11T02:39:57.743Z,99992.44
2023-01-11T02:41:57.409Z,99983.47
2023-01-11T02:43:55.133Z,99990.81
2023-01-11T02:45:27.102Z,99985.19
2023-01-11T02:47:01.133Z,99988.09
2023-01-11T02:48:39.619Z,99992.19
2023-01-11T02:50:21.705Z,99981.25
2023-01-11T02:52:01.129Z,99986.81
2023-01-11T02:53:42.406Z,99991.91
2023-01-11T02:55:15.789Z,99985.84
2023-01-11T02:56:49.283Z,99993.09
2023-01-11T02:58:23.170Z,99983.84
2023-01-11T02:59:57.970Z,99984.06
2023-01-11T03:01:29.928Z,99984.53
2023-01-11T03:03:11.147Z,99984.56
2023-01-11T03:04:43.115Z,99984.84
2023-01-11T03:06:18.329Z,99982.75
2023-01-11T03:08:02.708Z,99984.22
2023-01-11T03:09:51.455Z,99978.88
2023-01-11T03:12:00.980Z,99978.88
2023-01-11T03:13:32.885Z,99981.78
2023-01-11T03:15:19.757Z,99985.44
2023-01-11T03:16:54.483Z,99981.03
2023-01-11T03:18:37.736Z,99975.91
2023-01-11T03:20:12.483Z,99978.78
2023-01-11T03:21:50.077Z,99975.16
2023-01-11T03:23:24.538Z,99984.84
2023-01-11T03:25:08.740Z,99974.38
2023-01-11T03:26:43.635Z,99972.91
2023-01-11T03:28:18.682Z,99978.72
2023-01-11T03:30:12.031Z,99990.38
2023-01-11T03:31:52.894Z,99980.09
2023-01-11T03:33:29.306Z,99976.66
2023-01-11T03:35:11.677Z,99971.75
2023-01-11T03:36:49.392Z,99983.13
2023-01-11T03:38:25.210Z,99978.50
2023-01-11T03:40:00.695Z,99978.69
2023-01-11T03:41:35.950Z,99969.44
2023-01-11T03:43:13.002Z,99973.78
2023-01-11T03:44:47.045Z,99975.47
2023-01-11T03:46:22.606Z,99971.31
2023-01-11T03:47:56.235Z,99972.03
2023-01-11T03:49:30.783Z,99966.25
2023-01-11T03:51:03.288Z,99964.09
2023-01-11T03:52:37.303Z,99964.34
2023-01-11T03:54:12.009Z,99961.22
2023-01-11T03:55:45.823Z,99958.56
2023-01-11T03:57:20.977Z,99963.72
2023-01-11T03:58:52.923Z,99962.50
2023-01-11T04:00:25.889Z,99965.16
2023-01-11T04:01:58.100Z,99959.09
2023-01-11T04:03:30.098Z,99962.97
2023-01-11T04:05:02.589Z,99961.03
2023-01-11T04:06:36.405Z,99956.16
2023-01-11T04:08:08.456Z,99962.22
2023-01-11T04:09:40.460Z,99960.03
2023-01-11T04:11:12.401Z,99962.47
2023-01-11T04:12:49.298Z,99957.56
2023-01-11T04:14:21.214Z,99964.13
2023-01-11T04:15:54.194Z,99962.41
2023-01-11T04:17:26.153Z,99966.56
2023-01-11T04:18:58.198Z,99961.22
2023-01-11T04:20:30.318Z,99974.81
2023-01-11T04:22:02.237Z,99968.25
2023-01-11T04:23:34.177Z,99965.59
2023-01-11T04:25:06.428Z,99961.72
2023-01-11T04:26:38.454Z,99957.84
2023-01-11T04:28:10.576Z,99962.47
2023-01-11T04:29:42.469Z,99963.91
2023-01-11T04:31:14.561Z,99963.44
2023-01-11T04:32:46.597Z,99957.84
2023-01-11T04:34:18.556Z,99963.19
2023-01-11T04:35:50.713Z,99960.53
2023-01-11T04:37:22.684Z,99953.22
2023-01-11T04:38:54.672Z,99962.97
2023-01-11T04:40:26.660Z,99957.16
2023-01-11T04:42:17.191Z,99960.06
2023-01-11T04:43:49.101Z,99955.22
2023-01-11T04:45:21.602Z,99958.38
2023-01-11T04:46:53.727Z,99956.88
2023-01-11T04:48:25.648Z,99957.38
2023-01-11T04:49:57.783Z,99961.25
2023-01-11T04:51:29.686Z,99959.06
2023-01-11T04:53:01.627Z,99956.13
2023-01-11T04:54:33.606Z,99959.28
2023-01-11T04:56:06.259Z,99962.88
2023-01-11T04:57:38.239Z,99960.69
2023-01-11T04:59:10.239Z,99965.75
2023-01-11T05:00:42.408Z,99956.28
2023-01-11T05:02:14.890Z,99950.69
2023-01-11T05:03:47.174Z,99967.47
2023-01-11T05:05:19.194Z,99957.50
2023-01-11T05:06:51.232Z,99957.50
2023-01-11T05:08:23.923Z,99960.91
2023-01-11T05:09:55.827Z,99956.28
2023-01-11T05:11:27.817Z,99961.16
2023-01-11T05:12:59.796Z,99955.34
2023-01-11T05:14:31.811Z,99952.94
2023-01-11T05:16:03.869Z,99950.53
2023-01-11T05:17:35.869Z,99948.09
2023-01-11T05:19:09.677Z,99951.06
2023-01-11T05:20:41.681Z,99956.88
2023-01-11T05:22:13.615Z,99953.03
2023-01-11T05:23:45.692Z,99956.88
2023-01-11T05:25:17.578Z,99953.03
2023-01-11T05:26:50.301Z,99959.34
2023-01-11T05:28:22.437Z,99956.66
2023-01-11T05:29:54.347Z,99947.00
2023-01-11T05:31:26.539Z,99940.44
2023-01-11T05:32:58.635Z,99939.50
2023-01-11T05:34:30.586Z,99945.56
2023-01-11T05:36:04.089Z,99945.06
2023-01-11T05:37:36.107Z,99946.78
2023-01-11T05:39:08.302Z,99954.06
2023-01-11T05:40:40.327Z,99949.91
2023-01-11T05:42:12.245Z,99963.00
2023-01-11T05:44:04.024Z,99958.41
2023-01-11T05:45:37.351Z,99951.59
2023-01-11T05:47:09.319Z,99952.31
2023-01-11T05:48:41.591Z,99947.72
2023-01-11T05:50:13.544Z,99948.44
2023-01-11T05:51:45.668Z,99949.66
2023-01-11T05:53:17.761Z,99952.31
2023-01-11T05:54:49.703Z,99959.34
2023-01-11T05:56:21.839Z,99959.81
2023-01-11T05:57:54.090Z,99962.22
2023-01-11T05:59:26.993Z,99960.03
2023-01-11T06:00:58.936Z,99960.03
2023-01-11T06:02:30.950Z,99957.63
2023-01-11T06:04:03.255Z,99957.88
2023-01-11T06:05:35.317Z,99956.94
2023-01-11T06:07:09.973Z,99954.50
2023-01-11T06:08:42.029Z,99962.81
2023-01-11T06:10:14.000Z,99960.59
2023-01-11T06:11:46.059Z,99967.41
2023-01-11T06:13:26.790Z,99965.94
2023-01-11T06:14:59.057Z,99967.41
2023-01-11T06:16:31.050Z,99965.94
2023-01-11T06:18:03.034Z,99962.53
2023-01-11T06:19:35.164Z,99953.31
2023-01-11T06:21:07.276Z,99956.72
2023-01-11T06:22:39.247Z,99965.94
2023-01-11T06:24:11.226Z,99971.53
2023-01-11T06:25:45.241Z,99966.44
2023-01-11T06:27:18.063Z,99962.81
2023-01-11T06:28:50.768Z,99957.28
2023-01-11T06:30:25.877Z,99958.72
2023-01-11T06:31:58.384Z,99954.38
2023-01-11T06:33:30.835Z,99960.69
2023-01-11T06:35:03.015Z,99952.22
2023-01-11T06:36:34.959Z,99962.44
2023-01-11T06:38:09.126Z,99955.13
2023-01-11T06:39:41.143Z,99961.94
2023-01-11T06:41:14.393Z,99962.94
2023-01-11T06:42:46.777Z,99952.75
2023-01-11T06:44:18.770Z,99962.69
2023-01-11T06:45:51.234Z,99964.88
2023-01-11T06:47:23.281Z,99959.06
2023-01-11T06:48:55.197Z,99957.38
2023-01-11T06:50:27.370Z,99962.50
2023-01-11T06:51:59.297Z,99958.88
2023-01-11T06:53:31.328Z,99955.00
2023-01-11T06:55:03.370Z,99960.59
2023-01-11T06:56:35.345Z,99952.84
2023-01-11T06:58:07.249Z,99960.63
2023-01-11T06:59:43.385Z,99953.59
2023-01-11T07:01:15.766Z,99961.38
2023-01-11T07:02:48.765Z,99959.94
2023-01-11T07:04:21.640Z,99954.34
2023-01-11T07:05:54.419Z,99952.91
2023-01-11T07:07:26.479Z,99958.06
2023-01-11T07:08:58.625Z,99956.13
2023-01-11T07:10:30.666Z,99957.84
2023-01-11T07:12:02.733Z,99964.94
2023-01-11T07:13:35.403Z,99963.97
2023-01-11T07:15:08.356Z,99964.44
2023-01-11T07:16:41.469Z,99964.72
2023-01-11T07:18:15.098Z,99964.97
2023-01-11T07:19:47.122Z,99962.06
2023-01-11T07:21:19.301Z,99971.31
2023-01-11T07:22:51.646Z,99956.25
2023-01-11T07:24:25.250Z,99957.22
2023-01-11T07:25:57.340Z,99947.50
2023-01-11T07:27:29.410Z,99953.84
2023-01-11T07:29:01.341Z,99952.38
2023-01-11T07:30:44.580Z,99948.22
2023-01-11T07:32:24.069Z,99939.75
2023-01-11T07:33:56.047Z,99941.19
2023-01-11T07:35:29.150Z,99945.31
2023-01-11T07:37:01.221Z,99941.41
2023-01-11T07:38:33.288Z,99944.09
2023-01-11T07:40:05.626Z,99943.88
2023-01-11T07:41:56.132Z,99939.28
2023-01-11T07:43:28.298Z,99933.16
2023-01-11T07:45:01.321Z,99946.53
2023-01-11T07:46:33.772Z,99948.25
2023-01-11T07:48:07.096Z,99933.13
2023-01-11T07:49:39.090Z,99941.41
2023-01-11T07:51:11.301Z,99937.47
2023-01-11T07:52:49.611Z,99935.25
2023-01-11T07:54:21.557Z,99931.06
2023-01-11T07:55:56.448Z,99927.38
2023-01-11T07:57:29.561Z,99935.63
2023-01-11T07:59:01.583Z,99934.66
2023-01-11T08:00:33.638Z,99939.03
2023-01-11T08:02:05.753Z,99938.78
2023-01-11T08:03:37.803Z,99935.09
2023-01-11T08:05:09.975Z,99934.88
2023-01-11T08:06:41.988Z,99940.22
2023-01-11T08:08:14.172Z,99941.50
2023-01-11T08:09:46.213Z,99944.69
2023-01-11T08:11:36.583Z,99939.34
2023-01-11T08:13:30.382Z,99944.75
2023-01-11T08:15:02.515Z,99943.25
2023-01-11T08:16:34.655Z,99949.38
2023-01-11T08:18:07.741Z,99949.84
2023-01-11T08:19:39.873Z,99956.66
2023-01-11T08:21:13.456Z,99954.75
2023-01-11T08:22:46.826Z,99960.34
2023-01-11T08:24:19.067Z,99966.91
2023-01-11T08:25:55.700Z,99973.25
2023-01-11T08:27:27.649Z,99974.19
2023-01-11T08:28:59.586Z,99968.56
2023-01-11T08:30:31.642Z,99969.28
2023-01-11T08:32:03.659Z,99963.66
2023-01-11T08:33:35.697Z,99965.09
2023-01-11T08:35:07.766Z,99969.19
2023-01-11T08:36:39.829Z,99969.66
2023-01-11T08:38:11.818Z,99975.03
2023-01-11T08:39:43.847Z,99970.84
2023-01-11T08:41:15.813Z,99975.25
2023-01-11T08:42:47.873Z,99966.44
2023-01-11T08:44:33.427Z,99964.94
2023-01-11T08:46:06.385Z,99962.94
2023-01-11T08:47:38.340Z,99966.09
2023-01-11T08:49:12.380Z,99957.78
2023-01-11T08:50:47.234Z,99960.66
2023-01-11T08:52:19.172Z,99957.19
2023-01-11T08:53:52.182Z,99954.47
2023-01-11T08:55:24.261Z,99946.16
2023-01-11T08:56:56.282Z,99945.88
2023-01-11T08:58:28.486Z,99945.59
2023-01-11T09:00:00.435Z,99933.88
2023-01-11T09:01:33.673Z,99937.50
2023-01-11T09:03:05.725Z,99941.63
2023-01-11T09:04:37.791Z,99936.00
2023-01-11T09:06:09.762Z,99936.25
2023-01-11T09:07:41.911Z,99936.47
2023-01-11T09:09:14.086Z,99936.47
2023-01-11T09:10:46.154Z,99935.94
2023-01-11T09:12:18.427Z,99928.13
2023-01-11T09:13:50.379Z,99942.50
2023-01-11T09:15:22.693Z,99926.09
2023-01-11T09:16:55.187Z,99929.25
2023-01-11T09:18:27.340Z,99922.34
2023-01-11T09:19:59.482Z,99922.09
2023-01-11T09:21:31.889Z,99921.06
2023-01-11T09:23:03.928Z,99920.28
2023-01-11T09:24:35.924Z,99921.47
2023-01-11T09:26:07.885Z,99925.34
2023-01-11T09:27:43.137Z,99928.25
2023-01-11T09:29:15.224Z,99921.84
2023-01-11T09:30:47.256Z,99924.50
2023-01-11T09:32:19.313Z,99925.16
2023-01-11T09:33:51.239Z,99921.16
2023-01-11T09:35:23.225Z,99913.03
2023-01-11T09:36:56.835Z,99914.19
2023-01-11T09:38:34.008Z,99903.34
2023-01-11T09:40:06.863Z,99911.13
2023-01-11T09:42:00.832Z,99905.25
2023-01-11T09:43:37.347Z,99909.84
2023-01-11T09:45:15.537Z,99898.09
2023-01-11T09:46:51.403Z,99905.81
2023-01-11T09:48:30.701Z,99903.56
2023-01-11T09:50:06.952Z,99898.88
2023-01-11T09:51:39.729Z,99894.84
2023-01-11T09:53:34.819Z,99892.28
2023-01-11T09:55:11.815Z,99892.41
2023-01-11T09:56:49.929Z,99900.66
2023-01-11T09:58:32.390Z,99901.28
2023-01-11T10:00:15.007Z,99897.75
2023-01-11T10:01:53.617Z,99896.22
2023-01-11T10:03:44.331Z,99898.63
2023-01-11T10:05:23.653Z,99890.94
2023-01-11T10:07:15.579Z,99888.69
2023-01-11T10:18:29.803Z,99881.47
2023-01-11T10:18:40.119Z,99874.94
2023-01-11T10:19:32.178Z,99874.31
2023-01-11T10:21:05.018Z,99872.06
2023-01-11T10:22:42.630Z,99867.09
2023-01-11T10:24:39.109Z,99878.78
2023-01-11T10:26:23.188Z,99874.53
2023-01-11T10:27:57.044Z,99877.44
2023-01-11T10:29:59.400Z,99875.47
2023-01-11T10:31:37.068Z,99883.75
2023-01-11T10:33:34.422Z,99881.81
2023-01-11T10:35:34.040Z,99878.28
2023-01-11T10:37:09.542Z,99888.22
2023-01-11T10:38:45.695Z,99878.38
2023-01-11T10:40:36.309Z,99875.88
2023-01-11T10:42:11.685Z,99871.59
2023-01-11T10:43:47.741Z,99873.47
2023-01-11T10:45:23.810Z,99869.97
2023-01-11T10:46:57.097Z,99862.97
2023-01-11T10:48:39.404Z,99863.91
2023-01-11T10:50:30.086Z,99859.63
2023-01-11T10:52:12.359Z,99863.44
2023-01-11T10:53:50.176Z,99854.84
2023-01-11T10:57:15.991Z,99849.88
2023-01-11T10:58:53.535Z,99848.81
2023-01-11T11:00:31.605Z,99854.59
2023-01-11T11:02:15.389Z,99861.13
2023-01-11T11:03:50.530Z,99858.63
2023-01-11T11:05:30.933Z,99855.94
2023-01-11T11:07:11.401Z,99853.44
2023-01-11T11:08:46.756Z,99856.13
2023-01-11T11:10:41.845Z,99850.53
2023-01-11T11:12:23.363Z,99846.59
2023-01-11T11:14:02.658Z,99836.72
2023-01-11T11:15:50.495Z,99845.53
2023-01-11T11:17:25.228Z,99838.16
2023-01-11T11:18:58.755Z,99831.00
2023-01-11T11:20:32.928Z,99830.47
2023-01-11T11:22:05.195Z,99840.00
2023-01-11T11:23:37.900Z,99833.34
2023-01-11T11:25:15.894Z,99833.56
2023-01-11T11:26:51.963Z,99823.50
2023-01-11T11:28:29.133Z,99828.34
2023-01-11T11:30:01.147Z,99822.44
2023-01-11T11:31:35.110Z,99816.50
2023-01-11T11:33:07.185Z,99813.81
2023-01-11T11:34:45.932Z,99815.25
2023-01-11T11:36:17.922Z,99810.78
2023-01-11T11:37:53.886Z,99808.28
2023-01-11T11:39:29.035Z,99814.59
2023-01-11T11:41:01.119Z,99805.94
2023-01-11T11:42:33.170Z,99808.84
2023-01-11T11:44:14.505Z,99804.91
2023-01-11T11:46:06.783Z,99805.84
2023-01-11T11:47:38.917Z,99799.91
2023-01-11T11:49:13.225Z,99801.56
2023-01-11T11:50:45.977Z,99812.75
2023-01-11T11:52:18.146Z,99801.41
2023-01-11T11:53:55.872Z,99802.34
2023-01-11T11:55:30.736Z,99805.22
2023-01-11T11:57:16.838Z,99798.56
2023-01-11T11:58:48.982Z,99794.06
2023-01-11T12:00:23.553Z,99793.53
2023-01-11T12:01:57.850Z,99796.63
2023-01-11T12:03:33.780Z,99796.84
2023-01-11T12:05:07.877Z,99794.31
2023-01-11T12:06:40.511Z,99794.69
2023-01-11T12:08:14.463Z,99796.84
2023-01-11T12:09:51.096Z,99801.94
2023-01-11T12:11:30.021Z,99807.53
2023-01-11T12:13:03.232Z,99803.03
2023-01-11T12:14:35.829Z,99804.69
2023-01-11T12:16:20.437Z,99794.81
2023-01-11T12:17:52.747Z,99800.94
2023-01-11T12:19:25.494Z,99797.88
2023-01-11T12:21:08.458Z,99801.47
2023-01-11T12:22:40.359Z,99792.31
2023-01-11T12:24:23.811Z,99798.66
2023-01-11T12:25:55.704Z,99795.56
2023-01-11T12:27:33.783Z,99786.63
2023-01-11T12:29:05.747Z,99781.41
2023-01-11T12:30:37.881Z,99791.84
2023-01-11T12:32:12.635Z,99786.81
2023-01-11T12:34:03.064Z,99794.41
2023-01-11T12:35:37.563Z,99792.63
2023-01-11T12:37:12.566Z,99779.25
2023-01-11T12:38:53.854Z,99775.50
2023-01-11T12:40:47.966Z,99778.59
2023-01-11T12:42:34.922Z,99779.66
2023-01-11T12:44:12.417Z,99773.38
2023-01-11T12:45:59.448Z,99775.72
2023-01-11T12:47:55.245Z,99767.78
2023-01-11T12:49:29.914Z,99780.25
2023-01-11T12:51:05.015Z,99775.03
2023-01-11T12:52:39.960Z,99772.50
2023-01-11T12:54:15.166Z,99773.06
2023-01-11T12:55:50.149Z,99771.22
2023-01-11T12:57:32.900Z,99771.44
2023-01-11T12:59:04.836Z,99766.03
2023-01-11T13:01:00.612Z,99768.00
2023-01-11T13:02:44.791Z,99762.06
2023-01-11T13:04:16.815Z,99766.41
2023-01-11T13:05:51.761Z,99762.59
2023-01-11T13:07:23.683Z,99771.06
2023-01-11T13:09:05.071Z,99768.75
2023-01-11T13:10:58.219Z,99764.44
2023-01-11T13:13:02.729Z,99770.19
2023-01-11T13:14:41.639Z,99769.47
2023-01-11T13:16:14.312Z,99769.28
2023-01-11T13:18:09.415Z,99771.84
2023-01-11T13:19:47.634Z,99762.81
2023-01-11T13:21:33.402Z,99765.69
2023-01-11T13:23:11.967Z,99755.06
2023-01-11T13:24:46.448Z,99757.94
2023-01-11T13:26:23.743Z,99750.38
2023-01-11T13:27:57.135Z,99753.28
2023-01-11T13:29:31.203Z,99755.41
2023-01-11T13:31:05.075Z,99755.97
2023-01-11T13:32:37.800Z,99759.22
2023-01-11T13:34:17.560Z,99750.91
2023-01-11T13:35:54.395Z,99752.69
2023-01-11T13:37:31.065Z,99763.72
2023-01-11T13:39:11.970Z,99757.03
2023-01-11T13:40:56.398Z,99755.78
2023-01-11T13:42:34.849Z,99758.47
2023-01-11T13:44:09.972Z,99755.22
2023-01-11T13:45:41.952Z,99751.03
2023-01-11T13:47:20.534Z,99747.25
2023-01-11T13:49:18.391Z,99751.78
2023-01-11T13:50:59.367Z,99738.75
2023-01-11T13:52:31.354Z,99742.00
2023-01-11T13:54:03.366Z,99745.28
2023-01-11T13:55:54.333Z,99744.38
2023-01-11T13:57:26.274Z,99750.66
2023-01-11T13:59:03.430Z,99748.31
2023-01-11T14:00:39.044Z,99754.59
2023-01-11T14:02:17.822Z,99753.53
2023-01-11T14:03:49.774Z,99758.88
2023-01-11T14:05:22.827Z,99763.75
2023-01-11T14:07:00.903Z,99764.47
2023-01-11T14:09:00.533Z,99771.25
2023-01-11T14:10:55.259Z,99766.88
2023-01-11T14:12:42.084Z,99753.16
2023-01-11T14:14:20.224Z,99749.16
2023-01-11T14:16:03.804Z,99746.41
2023-01-11T14:17:36.599Z,99748.34
2023-01-11T14:19:20.394Z,99753.19
2023-01-11T14:20:55.526Z,99751.13
2023-01-11T14:22:36.595Z,99747.88
2023-01-11T14:24:09.438Z,99749.81
2023-01-11T14:26:00.711Z,99753.38
2023-01-11T14:27:52.710Z,99752.78
2023-01-11T14:29:35.348Z,99743.88
2023-01-11T14:31:07.288Z,99743.31
2023-01-11T14:33:02.507Z,99749.56
2023-01-11T14:34:40.556Z,99746.81
2023-01-11T14:36:12.580Z,99756.25
2023-01-11T14:38:03.524Z,99756.41
2023-01-11T14:39:41.461Z,99759.72
2023-01-11T14:41:32.208Z,99753.75
2023-01-11T14:43:22.992Z,99752.41
2023-01-11T14:45:00.660Z,99752.38
2023-01-11T14:47:02.170Z,99744.38
2023-01-11T14:48:48.974Z,99742.34
2023-01-11T14:50:33.184Z,99744.63
2023-01-11T14:52:14.267Z,99750.31
2023-01-11T14:53:58.432Z,99746.72
2023-01-11T14:55:31.907Z,99739.16
2023-01-11T14:57:03.944Z,99737.91
2023-01-11T14:58:35.887Z,99741.84
2023-01-11T15:00:19.973Z,99737.91
2023-01-11T15:02:04.537Z,99741.84
2023-01-11T15:03:40.220Z,99749.94
2023-01-11T15:05:27.395Z,99741.84
2023-01-11T15:06:59.745Z,99738.44
2023-01-11T15:08:41.944Z,99741.13
2023-01-11T15:10:36.908Z,99731.06
2023-01-11T15:12:12.866Z,99731.59
2023-01-11T15:13:46.394Z,99723.81
2023-01-11T15:15:22.732Z,99728.81
2023-01-11T15:17:15.800Z,99726.25
2023-01-11T15:18:47.779Z,99725.94
2023-01-11T15:20:20.946Z,99718.50
2023-01-11T15:21:55.745Z,99716.97
2023-01-11T15:23:29.197Z,99716.13
2023-01-11T15:25:05.415Z,99716.41
2023-01-11T15:26:47.209Z,99725.34
2023-01-11T15:28:38.131Z,99730.63
2023-01-11T15:30:30.394Z,99729.28
2023-01-11T15:32:02.463Z,99724.50
2023-01-11T15:33:47.789Z,99726.03
2023-01-11T15:35:22.821Z,99722.97
2023-01-11T15:36:54.852Z,99719.13
2023-01-11T15:38:40.289Z,99722.59
2023-01-11T15:40:12.184Z,99720.03
2023-01-11T15:42:03.666Z,99726.00
2023-01-11T15:43:35.762Z,99725.38
2023-01-11T15:45:26.031Z,99717.41
2023-01-11T15:47:16.777Z,99718.72
2023-01-11T15:48:51.254Z,99712.72
2023-01-11T15:50:38.345Z,99706.91
2023-01-11T15:52:37.188Z,99709.66
2023-01-11T15:54:18.082Z,99717.09
2023-01-11T15:56:08.711Z,99713.25
2023-01-11T15:57:43.324Z,99708.69
2023-01-11T15:59:34.104Z,99710.41
2023-01-11T16:01:21.808Z,99717.53
2023-01-11T16:02:59.561Z,99713.69
2023-01-11T16:04:39.519Z,99715.47
2023-01-11T16:06:32.404Z,99709.84
2023-01-11T16:08:07.250Z,99722.38
2023-01-11T16:09:57.746Z,99712.09
2023-01-11T16:11:39.232Z,99713.13
2023-01-11T16:13:20.223Z,99722.94
2023-01-11T16:14:55.102Z,99717.34
2023-01-11T16:16:29.305Z,99728.09
2023-01-11T16:18:05.336Z,99723.44
2023-01-11T16:19:40.023Z,99732.22
2023-01-11T16:21:38.418Z,99733.91
2023-01-11T16:23:17.444Z,99738.69
2023-01-11T16:24:52.320Z,99734.72
2023-01-11T16:26:24.315Z,99744.84
2023-01-11T16:27:58.540Z,99740.59
2023-01-11T16:29:31.967Z,99743.84
2023-01-11T16:31:05.156Z,99737.09
2023-01-11T16:32:37.663Z,99733.31
2023-01-11T16:34:09.648Z,99725.56
2023-01-11T16:35:41.994Z,99722.28
2023-01-11T16:37:34.400Z,99723.84
2023-01-11T16:39:10.035Z,99715.59
2023-01-11T16:40:42.964Z,99712.50
2023-01-11T16:42:14.944Z,99719.44
2023-01-11T16:43:58.598Z,99714.16
2023-01-11T16:45:41.350Z,99716.41
2023-01-11T16:47:18.151Z,99716.00
2023-01-11T16:49:08.382Z,99718.41
2023-01-11T16:50:42.094Z,99708.75
2023-01-11T16:52:29.260Z,99702.09
2023-01-11T16:54:02.685Z,99697.44
2023-01-11T16:55:39.987Z,99698.69
2023-01-11T16:57:16.351Z,99688.44
2023-01-11T16:59:19.185Z,99687.53
2023-01-11T17:00:57.366Z,99680.47
2023-01-11T17:02:32.867Z,99678.09
2023-01-11T17:04:09.982Z,99690.81
2023-01-11T17:05:42.135Z,99696.22
2023-01-11T17:07:19.812Z,99696.75
2023-01-11T17:08:56.477Z,99706.25
2023-01-11T17:10:29.671Z,99704.50
2023-01-11T17:12:01.619Z,99708.66
2023-01-11T17:13:54.972Z,99704.22
2023-01-11T17:15:43.809Z,99710.50
2023-01-11T17:17:16.275Z,99707.50
2023-01-11T17:18:48.612Z,99706.97
2023-01-11T17:20:22.124Z,99704.91
2023-01-11T17:21:59.917Z,99713.38
2023-01-11T17:23:31.931Z,99708.41
2023-01-11T17:25:08.454Z,99712.25
2023-01-11T17:26:50.987Z,99711.91
2023-01-11T17:28:23.995Z,99710.13
2023-01-11T17:29:57.187Z,99699.75
2023-01-11T17:31:32.081Z,99709.50
2023-01-11T17:33:04.133Z,99707.19
2023-01-11T17:34:37.890Z,99714.25
2023-01-11T17:36:10.223Z,99709.06
2023-01-11T17:37:44.010Z,99706.59
2023-01-11T17:39:28.690Z,99701.38
2023-01-11T17:41:01.389Z,99712.38
2023-01-11T17:42:52.099Z,99713.81
2023-01-11T17:44:42.717Z,99710.06
2023-01-11T17:46:19.532Z,99702.16
2023-01-11T17:47:52.995Z,99705.59
2023-01-11T17:49:25.785Z,99709.00
2023-01-11T17:51:02.488Z,99707.25
2023-01-11T17:52:43.845Z,99709.22
2023-01-11T17:54:22.855Z,99709.41
2023-01-11T17:55:56.211Z,99706.00
2023-01-11T17:57:28.392Z,99709.41
2023-01-11T17:59:21.413Z,99700.81
2023-01-11T18:01:08.476Z,99708.91
2023-01-11T18:02:40.990Z,99706.94
2023-01-11T18:04:18.876Z,99709.78
2023-01-11T18:05:51.139Z,99708.03
2023-01-11T18:07:23.138Z,99706.78
2023-01-11T18:08:56.137Z,99700.66
2023-01-11T18:10:29.619Z,99699.22
2023-01-11T18:12:21.619Z,99701.94
2023-01-11T18:13:54.688Z,99701.19
2023-01-11T18:15:30.208Z,99703.69
2023-01-11T18:17:03.670Z,99702.25
2023-01-11T18:18:41.481Z,99691.25
2023-01-11T18:20:16.631Z,99701.13
2023-01-11T18:21:52.331Z,99697.72
2023-01-11T18:23:24.793Z,99696.78
2023-01-11T18:24:58.290Z,99702.69
2023-01-11T18:26:32.085Z,99703.22
2023-01-11T18:28:21.011Z,99694.94
2023-01-11T18:29:54.208Z,99692.25
2023-01-11T18:31:26.308Z,99695.47
2023-01-11T18:32:59.562Z,99695.78
2023-01-11T18:34:31.902Z,99687.50
2023-01-11T18:36:04.558Z,99700.25
2023-01-11T18:37:37.519Z,99698.59
2023-01-11T18:39:10.505Z,99692.47
2023-01-11T18:40:42.871Z,99702.53
2023-01-11T18:42:16.672Z,99701.13
2023-01-11T18:43:48.718Z,99697.47
2023-01-11T18:45:21.980Z,99702.16
2023-01-11T18:46:54.059Z,99698.50
2023-01-11T18:48:26.020Z,99693.66
2023-01-11T18:49:58.314Z,99703.19
2023-01-11T18:51:39.679Z,99698.31
2023-01-11T18:53:12.796Z,99694.19
2023-01-11T18:54:45.007Z,99687.53
2023-01-11T18:56:17.171Z,99690.75
2023-01-11T18:57:49.242Z,99684.66
2023-01-11T18:59:21.327Z,99692.22
2023-01-11T19:00:53.382Z,99699.03
2023-01-11T19:02:44.407Z,99697.78